sensor_id;sensor_type;location;lat;lon;timestamp;pressure;altitude;pressure_sealevel;temperature;humidity
21300;BME280;10809;49.476;11.016;2023-07-31T00:01:23;98221.69;;;18.31;47.99
21300;BME280;10809;49.476;11.016;2023-07-31T00:03:54;98213.78;;;18.29;48.11
21300;BME280;10809;49.476;11.016;2023-07-31T00:06:24;98213.91;;;18.28;48.03
21300;BME280;10809;49.476;11.016;2023-07-31T00:08:55;98213.91;;;18.28;48.06
21300;BME280;10809;49.476;11.016;2023-07-31T00:11:28;98207.81;;;18.26;47.85
21300;BME280;10809;49.476;11.016;2023-07-31T00:13:58;98208.81;;;18.25;48.02
21300;BME280;10809;49.476;11.016;2023-07-31T00:16:29;98207.13;;;18.24;48.24
21300;BME280;10809;49.476;11.016;2023-07-31T00:18:59;98201.91;;;18.22;48.10
21300;BME280;10809;49.476;11.016;2023-07-31T00:21:30;98200.19;;;18.21;48.05
21300;BME280;10809;49.476;11.016;2023-07-31T00:24:00;98194.97;;;18.20;47.95
21300;BME280;10809;49.476;11.016;2023-07-31T00:26:31;98195.97;;;18.19;47.99
21300;BME280;10809;49.476;11.016;2023-07-31T00:29:02;98195.25;;;18.17;48.17
21300;BME280;10809;49.476;11.016;2023-07-31T00:31:33;98201.59;;;18.16;47.92
21300;BME280;10809;49.476;11.016;2023-07-31T00:34:03;98190.16;;;18.13;48.23
21300;BME280;10809;49.476;11.016;2023-07-31T00:36:40;98195.63;;;18.12;48.09
21300;BME280;10809;49.476;11.016;2023-07-31T00:39:12;98204.69;;;18.11;48.27
21300;BME280;10809;49.476;11.016;2023-07-31T00:41:43;98206.50;;;18.10;48.23
21300;BME280;10809;49.476;11.016;2023-07-31T00:44:13;98200.44;;;18.08;48.32
21300;BME280;10809;49.476;11.016;2023-07-31T00:46:48;98201.41;;;18.07;48.29
21300;BME280;10809;49.476;11.016;2023-07-31T00:49:28;98193.50;;;18.06;48.38
21300;BME280;10809;49.476;11.016;2023-07-31T00:52:00;98186.47;;;18.05;48.30
21300;BME280;10809;49.476;11.016;2023-07-31T00:54:39;98201.69;;;18.04;48.17
21300;BME280;10809;49.476;11.016;2023-07-31T00:57:10;98195.47;;;18.04;48.29
21300;BME280;10809;49.476;11.016;2023-07-31T00:59:44;98201.81;;;18.03;48.34
21300;BME280;10809;49.476;11.016;2023-07-31T01:02:14;98200.94;;;18.02;48.34
21300;BME280;10809;49.476;11.016;2023-07-31T01:04:45;98196.59;;;18.01;48.40
21300;BME280;10809;49.476;11.016;2023-07-31T01:07:49;98195.59;;;18.02;48.42
21300;BME280;10809;49.476;11.016;2023-07-31T01:10:26;98195.47;;;18.04;48.50
21300;BME280;10809;49.476;11.016;2023-07-31T01:12:58;98182.91;;;18.04;48.63
21300;BME280;10809;49.476;11.016;2023-07-31T01:15:28;98179.28;;;18.05;48.76
21300;BME280;10809;49.476;11.016;2023-07-31T01:18:00;98189.00;;;18.06;48.67
21300;BME280;10809;49.476;11.016;2023-07-31T01:20:31;98175.59;;;18.06;48.70
21300;BME280;10809;49.476;11.016;2023-07-31T01:23:35;98182.78;;;18.06;48.28
21300;BME280;10809;49.476;11.016;2023-07-31T01:26:26;98179.16;;;18.07;48.45
21300;BME280;10809;49.476;11.016;2023-07-31T01:30:03;98174.75;;;18.06;48.45
21300;BME280;10809;49.476;11.016;2023-07-31T01:32:09;98177.28;;;18.07;48.62
21300;BME280;10809;49.476;11.016;2023-07-31T01:34:41;98175.75;;;18.05;48.56
21300;BME280;10809;49.476;11.016;2023-07-31T01:37:12;98174.59;;;18.07;48.76
21300;BME280;10809;49.476;11.016;2023-07-31T01:39:43;98178.16;;;18.08;48.62
21300;BME280;10809;49.476;11.016;2023-07-31T01:42:14;98171.09;;;18.07;48.50
21300;BME280;10809;49.476;11.016;2023-07-31T01:44:47;98169.25;;;18.07;48.67
21300;BME280;10809;49.476;11.016;2023-07-31T01:47:20;98173.78;;;18.07;48.69
21300;BME280;10809;49.476;11.016;2023-07-31T01:49:51;98172.94;;;18.06;48.56
21300;BME280;10809;49.476;11.016;2023-07-31T01:52:21;98165.75;;;18.07;48.83
21300;BME280;10809;49.476;11.016;2023-07-31T01:54:52;98169.38;;;18.06;48.71
21300;BME280;10809;49.476;11.016;2023-07-31T01:57:22;98160.53;;;18.05;48.83
21300;BME280;10809;49.476;11.016;2023-07-31T01:59:56;98153.44;;;18.04;48.71
21300;BME280;10809;49.476;11.016;2023-07-31T02:02:26;98151.63;;;18.05;48.88
21300;BME280;10809;49.476;11.016;2023-07-31T02:04:57;98150.75;;;18.04;48.68
21300;BME280;10809;49.476;11.016;2023-07-31T02:07:27;98147.13;;;18.05;48.64
21300;BME280;10809;49.476;11.016;2023-07-31T02:09:58;98136.50;;;18.04;48.84
21300;BME280;10809;49.476;11.016;2023-07-31T02:12:28;98133.00;;;18.03;49.12
21300;BME280;10809;49.476;11.016;2023-07-31T02:15:02;98136.50;;;18.04;48.84
21300;BME280;10809;49.476;11.016;2023-07-31T02:17:35;98133.00;;;18.03;49.08
21300;BME280;10809;49.476;11.016;2023-07-31T02:20:12;98123.97;;;18.04;48.86
21300;BME280;10809;49.476;11.016;2023-07-31T02:22:42;98140.03;;;18.04;48.85
21300;BME280;10809;49.476;11.016;2023-07-31T02:25:13;98132.00;;;18.04;48.90
21300;BME280;10809;49.476;11.016;2023-07-31T02:27:43;98123.97;;;18.04;48.92
21300;BME280;10809;49.476;11.016;2023-07-31T02:30:13;98120.44;;;18.04;49.19
21300;BME280;10809;49.476;11.016;2023-07-31T02:32:59;98130.31;;;18.03;48.97
21300;BME280;10809;49.476;11.016;2023-07-31T02:35:30;98123.09;;;18.04;49.07
21300;BME280;10809;49.476;11.016;2023-07-31T02:38:01;98125.94;;;18.02;49.14
21300;BME280;10809;49.476;11.016;2023-07-31T02:40:34;98126.91;;;18.01;49.01
21300;BME280;10809;49.476;11.016;2023-07-31T02:43:05;98121.84;;;17.98;49.08
21300;BME280;10809;49.476;11.016;2023-07-31T02:45:35;98124.50;;;17.98;49.01
21300;BME280;10809;49.476;11.016;2023-07-31T02:48:06;98129.16;;;17.96;49.09
21300;BME280;10809;49.476;11.016;2023-07-31T02:50:36;98126.47;;;17.96;49.12
21300;BME280;10809;49.476;11.016;2023-07-31T02:53:06;98128.44;;;17.94;49.32
21300;BME280;10809;49.476;11.016;2023-07-31T02:55:37;98123.94;;;17.95;49.24
21300;BME280;10809;49.476;11.016;2023-07-31T02:58:07;98130.25;;;17.94;49.19
21300;BME280;10809;49.476;11.016;2023-07-31T03:00:42;98123.19;;;17.93;49.14
21300;BME280;10809;49.476;11.016;2023-07-31T03:03:16;98124.03;;;17.93;49.40
21300;BME280;10809;49.476;11.016;2023-07-31T03:05:46;98118.66;;;17.93;49.36
21300;BME280;10809;49.476;11.016;2023-07-31T03:08:16;98120.53;;;17.93;49.13
21300;BME280;10809;49.476;11.016;2023-07-31T03:10:47;98114.31;;;17.92;49.26
21300;BME280;10809;49.476;11.016;2023-07-31T03:13:17;98117.00;;;17.92;49.29
21300;BME280;10809;49.476;11.016;2023-07-31T03:15:48;98113.44;;;17.92;49.50
21300;BME280;10809;49.476;11.016;2023-07-31T03:18:18;98119.66;;;17.92;49.09
21300;BME280;10809;49.476;11.016;2023-07-31T03:20:48;98118.81;;;17.92;49.26
21300;BME280;10809;49.476;11.016;2023-07-31T03:23:23;98117.97;;;17.91;49.26
21300;BME280;10809;49.476;11.016;2023-07-31T03:25:59;98118.13;;;17.90;49.34
21300;BME280;10809;49.476;11.016;2023-07-31T03:28:35;98119.94;;;17.89;49.54
21300;BME280;10809;49.476;11.016;2023-07-31T03:31:06;98123.47;;;17.90;49.36
21300;BME280;10809;49.476;11.016;2023-07-31T03:33:38;98114.56;;;17.89;49.18
21300;BME280;10809;49.476;11.016;2023-07-31T03:36:09;98115.56;;;17.88;49.60
21300;BME280;10809;49.476;11.016;2023-07-31T03:38:42;98116.41;;;17.89;49.54
21300;BME280;10809;49.476;11.016;2023-07-31T03:41:12;98115.56;;;17.88;49.39
21300;BME280;10809;49.476;11.016;2023-07-31T03:43:43;98110.34;;;17.87;49.26
21300;BME280;10809;49.476;11.016;2023-07-31T03:46:13;98114.97;;;17.85;49.44
21300;BME280;10809;49.476;11.016;2023-07-31T03:48:44;98119.47;;;17.84;49.61
21300;BME280;10809;49.476;11.016;2023-07-31T03:51:14;98113.56;;;17.81;49.55
21300;BME280;10809;49.476;11.016;2023-07-31T03:53:45;98110.16;;;17.79;49.69
21300;BME280;10809;49.476;11.016;2023-07-31T03:56:15;98108.63;;;17.76;49.66
21300;BME280;10809;49.476;11.016;2023-07-31T03:58:51;98115.94;;;17.74;49.58
21300;BME280;10809;49.476;11.016;2023-07-31T04:01:22;98118.75;;;17.73;49.73
21300;BME280;10809;49.476;11.016;2023-07-31T04:03:52;98121.56;;;17.71;49.80
21300;BME280;10809;49.476;11.016;2023-07-31T04:06:26;98115.34;;;17.71;49.94
21300;BME280;10809;49.476;11.016;2023-07-31T04:08:59;98118.16;;;17.69;49.91
21300;BME280;10809;49.476;11.016;2023-07-31T04:11:29;98118.16;;;17.69;49.86
21300;BME280;10809;49.476;11.016;2023-07-31T04:14:09;98111.09;;;17.68;49.69
21300;BME280;10809;49.476;11.016;2023-07-31T04:16:42;98111.09;;;17.68;49.91
21300;BME280;10809;49.476;11.016;2023-07-31T04:19:16;98107.56;;;17.68;49.80
21300;BME280;10809;49.476;11.016;2023-07-31T04:21:53;98104.06;;;17.67;49.83
21300;BME280;10809;49.476;11.016;2023-07-31T04:24:24;98108.56;;;17.67;50.04
21300;BME280;10809;49.476;11.016;2023-07-31T04:26:57;98109.41;;;17.67;49.98
21300;BME280;10809;49.476;11.016;2023-07-31T04:29:28;98113.06;;;17.66;49.98
21300;BME280;10809;49.476;11.016;2023-07-31T04:31:58;98111.25;;;17.67;49.79
21300;BME280;10809;49.476;11.016;2023-07-31T04:34:29;98113.06;;;17.66;49.79
21300;BME280;10809;49.476;11.016;2023-07-31T04:36:59;98111.38;;;17.65;49.78
21300;BME280;10809;49.476;11.016;2023-07-31T04:39:29;98111.50;;;17.64;49.87
21300;BME280;10809;49.476;11.016;2023-07-31T04:42:00;98111.66;;;17.62;50.09
21300;BME280;10809;49.476;11.016;2023-07-31T04:44:30;98103.63;;;17.62;50.18
21300;BME280;10809;49.476;11.016;2023-07-31T04:47:00;98106.28;;;17.62;49.92
21300;BME280;10809;49.476;11.016;2023-07-31T04:49:32;98098.38;;;17.61;50.18
21300;BME280;10809;49.476;11.016;2023-07-31T04:52:03;98092.19;;;17.60;49.94
21300;BME280;10809;49.476;11.016;2023-07-31T04:54:37;98095.72;;;17.61;50.17
21300;BME280;10809;49.476;11.016;2023-07-31T04:57:07;98091.22;;;17.61;50.20
21300;BME280;10809;49.476;11.016;2023-07-31T04:59:47;98089.38;;;17.62;50.25
21300;BME280;10809;49.476;11.016;2023-07-31T05:02:17;98083.88;;;17.63;50.41
21300;BME280;10809;49.476;11.016;2023-07-31T05:04:50;98086.56;;;17.63;50.13
21300;BME280;10809;49.476;11.016;2023-07-31T05:07:21;98089.22;;;17.63;50.49
21300;BME280;10809;49.476;11.016;2023-07-31T05:09:54;98084.59;;;17.65;50.69
21300;BME280;10809;49.476;11.016;2023-07-31T05:12:24;98082.78;;;17.66;50.44
21300;BME280;10809;49.476;11.016;2023-07-31T05:14:55;98079.97;;;17.67;50.57
21300;BME280;10809;49.476;11.016;2023-07-31T05:17:25;98092.38;;;17.68;50.61
21300;BME280;10809;49.476;11.016;2023-07-31T05:19:55;98089.56;;;17.70;50.58
21300;BME280;10809;49.476;11.016;2023-07-31T05:22:26;98087.72;;;17.70;50.56
21300;BME280;10809;49.476;11.016;2023-07-31T05:24:56;98087.72;;;17.70;50.08
21300;BME280;10809;49.476;11.016;2023-07-31T05:27:26;98089.41;;;17.71;50.54
21300;BME280;10809;49.476;11.016;2023-07-31T05:30:00;98095.63;;;17.72;50.45
21300;BME280;10809;49.476;11.016;2023-07-31T05:32:30;98093.50;;;17.75;50.46
21300;BME280;10809;49.476;11.016;2023-07-31T05:35:01;98094.38;;;17.76;50.67
21300;BME280;10809;49.476;11.016;2023-07-31T05:37:31;98101.41;;;17.77;50.62
21300;BME280;10809;49.476;11.016;2023-07-31T05:40:05;98099.59;;;17.77;50.78
21300;BME280;10809;49.476;11.016;2023-07-31T05:42:35;98107.50;;;17.79;50.68
21300;BME280;10809;49.476;11.016;2023-07-31T05:45:08;98110.88;;;17.81;50.67
21300;BME280;10809;49.476;11.016;2023-07-31T05:47:39;98119.63;;;17.83;50.62
21300;BME280;10809;49.476;11.016;2023-07-31T05:50:10;98108.91;;;17.83;50.58
21300;BME280;10809;49.476;11.016;2023-07-31T05:52:40;98101.59;;;17.85;50.90
21300;BME280;10809;49.476;11.016;2023-07-31T05:55:10;98091.72;;;17.85;50.89
21300;BME280;10809;49.476;11.016;2023-07-31T05:57:41;98091.47;;;17.88;50.87
21300;BME280;10809;49.476;11.016;2023-07-31T06:00:12;98084.97;;;17.91;50.70
21300;BME280;10809;49.476;11.016;2023-07-31T06:02:42;98090.91;;;17.94;50.82
21300;BME280;10809;49.476;11.016;2023-07-31T06:05:16;98081.91;;;17.95;50.85
21300;BME280;10809;49.476;11.016;2023-07-31T06:07:46;98084.19;;;18.00;50.92
21300;BME280;10809;49.476;11.016;2023-07-31T06:10:16;98084.06;;;18.01;50.91
21300;BME280;10809;49.476;11.016;2023-07-31T06:12:47;98081.09;;;18.04;50.72
21300;BME280;10809;49.476;11.016;2023-07-31T06:15:17;98092.53;;;18.06;51.00
21300;BME280;10809;49.476;11.016;2023-07-31T06:17:49;98093.94;;;18.10;50.88
21300;BME280;10809;49.476;11.016;2023-07-31T06:20:19;98091.00;;;18.13;50.79
21300;BME280;10809;49.476;11.016;2023-07-31T06:22:50;98090.72;;;18.17;51.00
21300;BME280;10809;49.476;11.016;2023-07-31T06:25:20;98090.44;;;18.20;50.88
21300;BME280;10809;49.476;11.016;2023-07-31T06:27:54;98086.66;;;18.22;50.92
21300;BME280;10809;49.476;11.016;2023-07-31T06:30:24;98105.84;;;18.27;50.80
21300;BME280;10809;49.476;11.016;2023-07-31T06:32:54;98104.59;;;18.31;50.84
21300;BME280;10809;49.476;11.016;2023-07-31T06:35:25;98097.94;;;18.35;50.88
21300;BME280;10809;49.476;11.016;2023-07-31T06:37:58;98095.84;;;18.39;50.98
21300;BME280;10809;49.476;11.016;2023-07-31T06:40:34;98097.25;;;18.43;50.82
21300;BME280;10809;49.476;11.016;2023-07-31T06:43:05;98090.75;;;18.45;50.97
21300;BME280;10809;49.476;11.016;2023-07-31T06:45:39;98085.97;;;18.49;50.55
21300;BME280;10809;49.476;11.016;2023-07-31T06:48:09;98093.75;;;18.52;50.70
21300;BME280;10809;49.476;11.016;2023-07-31T06:50:40;98089.91;;;18.54;50.80
21300;BME280;10809;49.476;11.016;2023-07-31T06:53:10;98090.50;;;18.58;50.76
21300;BME280;10809;49.476;11.016;2023-07-31T06:55:40;98083.03;;;18.61;50.82
21300;BME280;10809;49.476;11.016;2023-07-31T06:58:11;98077.25;;;18.66;50.93
21300;BME280;10809;49.476;11.016;2023-07-31T07:00:41;98084.72;;;18.72;50.98
21300;BME280;10809;49.476;11.016;2023-07-31T07:03:11;98086.16;;;18.76;50.64
21300;BME280;10809;49.476;11.016;2023-07-31T07:05:44;98090.28;;;18.80;50.83
21300;BME280;10809;49.476;11.016;2023-07-31T07:08:15;98098.72;;;18.85;50.53
21300;BME280;10809;49.476;11.016;2023-07-31T07:10:46;98095.59;;;18.89;50.62
21300;BME280;10809;49.476;11.016;2023-07-31T07:13:16;98085.31;;;18.94;50.75
21300;BME280;10809;49.476;11.016;2023-07-31T07:15:49;98087.56;;;18.99;50.84
21300;BME280;10809;49.476;11.016;2023-07-31T07:18:19;98079.22;;;19.02;50.69
21300;BME280;10809;49.476;11.016;2023-07-31T07:20:54;98079.66;;;19.07;50.50
21300;BME280;10809;49.476;11.016;2023-07-31T07:27:17;98090.38;;;19.16;50.30
21300;BME280;10809;49.476;11.016;2023-07-31T07:29:51;98092.06;;;19.17;50.26
21300;BME280;10809;49.476;11.016;2023-07-31T07:32:22;98091.06;;;19.18;50.07
21300;BME280;10809;49.476;11.016;2023-07-31T07:34:53;98096.28;;;19.20;50.03
21300;BME280;10809;49.476;11.016;2023-07-31T07:37:23;98092.06;;;19.17;50.16
21300;BME280;10809;49.476;11.016;2023-07-31T07:39:53;98097.44;;;19.17;50.09
21300;BME280;10809;49.476;11.016;2023-07-31T07:42:24;98100.97;;;19.18;50.05
21300;BME280;10809;49.476;11.016;2023-07-31T07:44:54;98100.97;;;19.18;50.02
21300;BME280;10809;49.476;11.016;2023-07-31T07:47:24;98093.88;;;19.17;50.03
21300;BME280;10809;49.476;11.016;2023-07-31T07:49:58;98096.56;;;19.17;50.11
21300;BME280;10809;49.476;11.016;2023-07-31T07:52:28;98096.56;;;19.17;50.15
21300;BME280;10809;49.476;11.016;2023-07-31T07:54:58;98093.88;;;19.17;50.14
21300;BME280;10809;49.476;11.016;2023-07-31T07:57:33;98091.22;;;19.17;49.98
21300;BME280;10809;49.476;11.016;2023-07-31T08:00:10;98092.78;;;19.19;50.05
21300;BME280;10809;49.476;11.016;2023-07-31T08:02:49;98081.03;;;19.20;50.34
21300;BME280;10809;49.476;11.016;2023-07-31T08:05:20;98082.56;;;19.23;50.03
21300;BME280;10809;49.476;11.016;2023-07-31T08:07:50;98086.69;;;19.27;50.18
21300;BME280;10809;49.476;11.016;2023-07-31T08:10:20;98083.72;;;19.30;50.19
21300;BME280;10809;49.476;11.016;2023-07-31T08:12:51;98081.41;;;19.35;50.04
21300;BME280;10809;49.476;11.016;2023-07-31T08:15:21;98089.88;;;19.40;50.37
21300;BME280;10809;49.476;11.016;2023-07-31T08:17:51;98080.09;;;19.48;50.56
21300;BME280;10809;49.476;11.016;2023-07-31T08:20:26;98085.34;;;19.59;50.29
21300;BME280;10809;49.476;11.016;2023-07-31T08:23:06;98079.94;;;19.69;50.01
21300;BME280;10809;49.476;11.016;2023-07-31T08:25:36;98077.38;;;19.77;50.05
21300;BME280;10809;49.476;11.016;2023-07-31T08:28:07;98071.78;;;19.88;50.29
21300;BME280;10809;49.476;11.016;2023-07-31T08:30:37;98071.28;;;20.02;50.50
21300;BME280;10809;49.476;11.016;2023-07-31T08:33:08;98053.66;;;20.17;50.63
21300;BME280;10809;49.476;11.016;2023-07-31T08:35:41;98053.88;;;20.33;50.10
21300;BME280;10809;49.476;11.016;2023-07-31T08:38:12;98048.09;;;20.46;49.75
21300;BME280;10809;49.476;11.016;2023-07-31T08:40:42;98043.34;;;20.57;49.49
21300;BME280;10809;49.476;11.016;2023-07-31T08:43:13;98032.69;;;20.65;49.77
21300;BME280;10809;49.476;11.016;2023-07-31T08:45:43;98035.09;;;20.76;49.68
21300;BME280;10809;49.476;11.016;2023-07-31T08:48:17;98027.66;;;20.88;49.86
21300;BME280;10809;49.476;11.016;2023-07-31T08:50:48;98022.72;;;21.01;49.82
21300;BME280;10809;49.476;11.016;2023-07-31T08:53:18;98029.53;;;21.13;49.94
21300;BME280;10809;49.476;11.016;2023-07-31T08:55:49;98030.16;;;21.24;49.45
21300;BME280;10809;49.476;11.016;2023-07-31T08:58:20;98027.47;;;21.32;49.25
21300;BME280;10809;49.476;11.016;2023-07-31T09:00:52;98031.25;;;21.39;48.97
21300;BME280;10809;49.476;11.016;2023-07-31T09:03:24;98027.06;;;21.45;48.69
21300;BME280;10809;49.476;11.016;2023-07-31T09:05:56;98031.66;;;21.52;48.42
21300;BME280;10809;49.476;11.016;2023-07-31T09:08:29;98028.31;;;21.59;48.36
21300;BME280;10809;49.476;11.016;2023-07-31T09:11:02;98030.34;;;21.65;48.82
21300;BME280;10809;49.476;11.016;2023-07-31T09:13:36;98021.66;;;21.71;48.39
21300;BME280;10809;49.476;11.016;2023-07-31T09:16:08;98017.31;;;21.78;48.56
21300;BME280;10809;49.476;11.016;2023-07-31T09:18:53;98026.97;;;21.88;48.34
21300;BME280;10809;49.476;11.016;2023-07-31T09:21:29;98020.75;;;21.96;48.45
21300;BME280;10809;49.476;11.016;2023-07-31T09:24:00;98011.53;;;22.06;48.16
21300;BME280;10809;49.476;11.016;2023-07-31T09:26:37;98019.78;;;22.13;48.15
21300;BME280;10809;49.476;11.016;2023-07-31T09:29:18;98019.31;;;22.17;47.70
21300;BME280;10809;49.476;11.016;2023-07-31T09:31:49;98011.72;;;22.21;47.61
21300;BME280;10809;49.476;11.016;2023-07-31T09:34:50;98015.09;;;22.23;47.46
21300;BME280;10809;49.476;11.016;2023-07-31T09:37:21;98011.56;;;22.22;47.02
21300;BME280;10809;49.476;11.016;2023-07-31T09:39:51;98007.19;;;22.21;47.14
21300;BME280;10809;49.476;11.016;2023-07-31T09:42:26;98011.72;;;22.21;47.05
21300;BME280;10809;49.476;11.016;2023-07-31T09:45:12;98017.13;;;22.21;47.08
21300;BME280;10809;49.476;11.016;2023-07-31T09:47:47;98005.50;;;22.20;47.16
21300;BME280;10809;49.476;11.016;2023-07-31T09:50:21;97998.91;;;22.23;47.46
21300;BME280;10809;49.476;11.016;2023-07-31T09:52:55;97988.66;;;22.26;47.10
21300;BME280;10809;49.476;11.016;2023-07-31T09:55:25;97992.19;;;22.27;47.12
21300;BME280;10809;49.476;11.016;2023-07-31T09:57:56;97985.63;;;22.29;47.00
21300;BME280;10809;49.476;11.016;2023-07-31T10:00:31;97979.38;;;22.29;47.42
21300;BME280;10809;49.476;11.016;2023-07-31T10:03:05;97975.66;;;22.30;46.92
21300;BME280;10809;49.476;11.016;2023-07-31T10:05:45;97982.47;;;22.34;47.11
21300;BME280;10809;49.476;11.016;2023-07-31T10:08:21;97976.91;;;22.35;46.96
21300;BME280;10809;49.476;11.016;2023-07-31T10:11:00;97978.41;;;22.38;47.11
21300;BME280;10809;49.476;11.016;2023-07-31T10:13:36;97968.63;;;22.37;47.17
21300;BME280;10809;49.476;11.016;2023-07-31T10:16:07;97971.16;;;22.38;47.07
21300;BME280;10809;49.476;11.016;2023-07-31T10:18:38;97965.44;;;22.41;46.98
21300;BME280;10809;49.476;11.016;2023-07-31T10:21:13;97965.09;;;22.44;46.73
21300;BME280;10809;49.476;11.016;2023-07-31T10:23:44;97961.38;;;22.45;46.80
21300;BME280;10809;49.476;11.016;2023-07-31T10:26:17;97952.44;;;22.45;46.00
21300;BME280;10809;49.476;11.016;2023-07-31T10:28:50;97944.66;;;22.42;46.40
21300;BME280;10809;49.476;11.016;2023-07-31T10:31:23;97938.28;;;22.43;46.97
21300;BME280;10809;49.476;11.016;2023-07-31T10:33:55;97938.13;;;22.44;46.97
21300;BME280;10809;49.476;11.016;2023-07-31T10:36:27;97947.22;;;22.51;46.82
21300;BME280;10809;49.476;11.016;2023-07-31T10:38:57;97938.44;;;22.57;46.77
21300;BME280;10809;49.476;11.016;2023-07-31T10:41:29;97928.81;;;22.63;46.90
21300;BME280;10809;49.476;11.016;2023-07-31T10:44:06;97924.44;;;22.70;46.85
21300;BME280;10809;49.476;11.016;2023-07-31T10:46:37;97918.34;;;22.76;46.50
21300;BME280;10809;49.476;11.016;2023-07-31T10:49:20;97916.81;;;22.81;46.85
21300;BME280;10809;49.476;11.016;2023-07-31T10:51:55;97911.59;;;22.88;46.20
21300;BME280;10809;49.476;11.016;2023-07-31T10:54:27;97908.19;;;22.94;46.20
21300;BME280;10809;49.476;11.016;2023-07-31T10:56:57;97904.50;;;23.03;46.51
21300;BME280;10809;49.476;11.016;2023-07-31T10:59:37;97907.00;;;23.13;46.26
21300;BME280;10809;49.476;11.016;2023-07-31T11:02:24;97909.00;;;23.19;46.03
21300;BME280;10809;49.476;11.016;2023-07-31T11:05:09;97905.78;;;23.23;45.89
21300;BME280;10809;49.476;11.016;2023-07-31T11:07:47;97900.38;;;23.23;45.68
21300;BME280;10809;49.476;11.016;2023-07-31T11:10:18;97904.28;;;23.21;45.45
21300;BME280;10809;49.476;11.016;2023-07-31T11:12:49;97902.06;;;23.16;45.17
21300;BME280;10809;49.476;11.016;2023-07-31T11:15:19;97904.47;;;23.11;45.14
21300;BME280;10809;49.476;11.016;2023-07-31T11:17:50;97898.06;;;23.04;44.99
21300;BME280;10809;49.476;11.016;2023-07-31T11:20:20;97891.66;;;22.97;44.89
21300;BME280;10809;49.476;11.016;2023-07-31T11:22:51;97896.06;;;22.90;44.45
21300;BME280;10809;49.476;11.016;2023-07-31T11:25:22;97893.38;;;22.82;44.76
21300;BME280;10809;49.476;11.016;2023-07-31T11:27:52;97895.09;;;22.75;44.99
21300;BME280;10809;49.476;11.016;2023-07-31T11:30:27;97902.16;;;22.68;45.15
21300;BME280;10809;49.476;11.016;2023-07-31T11:32:58;97892.22;;;22.60;45.07
21300;BME280;10809;49.476;11.016;2023-07-31T11:35:33;97888.53;;;22.53;45.10
21300;BME280;10809;49.476;11.016;2023-07-31T11:38:03;97889.22;;;22.47;45.01
21300;BME280;10809;49.476;11.016;2023-07-31T11:40:42;97896.09;;;22.42;45.18
21300;BME280;10809;49.476;11.016;2023-07-31T11:43:12;97900.31;;;22.36;45.06
21300;BME280;10809;49.476;11.016;2023-07-31T11:45:48;97891.72;;;22.33;45.32
21300;BME280;10809;49.476;11.016;2023-07-31T11:51:01;97885.97;;;22.28;45.55
21300;BME280;10809;49.476;11.016;2023-07-31T11:53:44;97880.91;;;22.25;45.20
21300;BME280;10809;49.476;11.016;2023-07-31T11:56:20;97886.31;;;22.25;45.25
21300;BME280;10809;49.476;11.016;2023-07-31T11:58:57;97885.63;;;22.23;45.08
21300;BME280;10809;49.476;11.016;2023-07-31T12:01:29;97888.31;;;22.23;45.19
21300;BME280;10809;49.476;11.016;2023-07-31T12:04:00;97883.78;;;22.23;45.69
21300;BME280;10809;49.476;11.016;2023-07-31T12:06:34;97878.22;;;22.25;45.27
21300;BME280;10809;49.476;11.016;2023-07-31T12:09:05;97877.88;;;22.28;45.14
21300;BME280;10809;49.476;11.016;2023-07-31T12:11:43;97883.09;;;22.29;45.25
21300;BME280;10809;49.476;11.016;2023-07-31T12:14:24;97880.41;;;22.29;45.37
21300;BME280;10809;49.476;11.016;2023-07-31T12:17:17;97877.53;;;22.31;45.63
21300;BME280;10809;49.476;11.016;2023-07-31T12:19:52;97870.28;;;22.31;45.42
21300;BME280;10809;49.476;11.016;2023-07-31T12:22:22;97880.09;;;22.32;45.32
21300;BME280;10809;49.476;11.016;2023-07-31T12:24:54;97868.44;;;22.32;45.27
21300;BME280;10809;49.476;11.016;2023-07-31T12:27:32;97860.34;;;22.32;44.92
21300;BME280;10809;49.476;11.016;2023-07-31T12:30:04;97862.34;;;22.30;44.45
21300;BME280;10809;49.476;11.016;2023-07-31T12:32:34;97857.13;;;22.28;44.77
21300;BME280;10809;49.476;11.016;2023-07-31T12:35:06;97854.44;;;22.28;45.00
21300;BME280;10809;49.476;11.016;2023-07-31T12:37:37;97850.75;;;22.29;44.70
21300;BME280;10809;49.476;11.016;2023-07-31T12:40:08;97845.34;;;22.29;44.92
21300;BME280;10809;49.476;11.016;2023-07-31T12:42:41;97845.16;;;22.31;45.01
21300;BME280;10809;49.476;11.016;2023-07-31T12:45:11;97844.16;;;22.32;44.97
21300;BME280;10809;49.476;11.016;2023-07-31T12:47:42;97845.84;;;22.33;44.67
21300;BME280;10809;49.476;11.016;2023-07-31T12:50:12;97839.47;;;22.34;44.53
21300;BME280;10809;49.476;11.016;2023-07-31T12:52:43;97833.06;;;22.35;44.65
21300;BME280;10809;49.476;11.016;2023-07-31T12:55:13;97827.47;;;22.36;44.87
21300;BME280;10809;49.476;11.016;2023-07-31T12:57:44;97820.25;;;22.37;44.68
21300;BME280;10809;49.476;11.016;2023-07-31T13:00:14;97821.75;;;22.39;44.63
21300;BME280;10809;49.476;11.016;2023-07-31T13:02:45;97815.16;;;22.42;44.68
21300;BME280;10809;49.476;11.016;2023-07-31T13:05:16;97815.84;;;22.44;44.63
21300;BME280;10809;49.476;11.016;2023-07-31T13:07:47;97810.44;;;22.44;44.54
21300;BME280;10809;49.476;11.016;2023-07-31T13:10:22;97806.72;;;22.45;44.50
21300;BME280;10809;49.476;11.016;2023-07-31T13:12:52;97810.09;;;22.47;44.34
21300;BME280;10809;49.476;11.016;2023-07-31T13:15:23;97813.47;;;22.49;44.67
21300;BME280;10809;49.476;11.016;2023-07-31T13:17:54;97806.88;;;22.51;44.43
21300;BME280;10809;49.476;11.016;2023-07-31T13:20:25;97804.69;;;22.55;44.15
21300;BME280;10809;49.476;11.016;2023-07-31T13:22:56;97800.78;;;22.57;44.45
21300;BME280;10809;49.476;11.016;2023-07-31T13:25:26;97797.56;;;22.62;44.51